sensor_id;sensor_type;location;lat;lon;timestamp;temperature;humidity
18103;DHT22;9178;51.120;6.192;2023-02-28T00:00:50;-0.40;99.90
18103;DHT22;9178;51.120;6.192;2023-02-28T00:03:17;-0.40;99.90
18103;DHT22;9178;51.120;6.192;2023-02-28T00:05:44;-0.30;99.90
18103;DHT22;9178;51.120;6.192;2023-02-28T00:08:11;-0.40;99.90
18103;DHT22;9178;51.120;6.192;2023-02-28T00:10:38;-0.40;99.90
18103;DHT22;9178;51.120;6.192;2023-02-28T00:13:06;-0.30;99.90
18103;DHT22;9178;51.120;6.192;2023-02-28T00:15:34;-0.40;99.90
18103;DHT22;9178;51.120;6.192;2023-02-28T00:18:02;-0.40;99.90
18103;DHT22;9178;51.120;6.192;2023-02-28T00:20:29;-0.40;99.90
18103;DHT22;9178;51.120;6.192;2023-02-28T00:22:56;-0.50;99.90
18103;DHT22;9178;51.120;6.192;2023-02-28T00:25:24;-0.50;99.90
18103;DHT22;9178;51.120;6.192;2023-02-28T00:27:52;-0.50;99.90
18103;DHT22;9178;51.120;6.192;2023-02-28T00:30:20;-0.50;99.90
18103;DHT22;9178;51.120;6.192;2023-02-28T00:32:47;-0.50;99.90
18103;DHT22;9178;51.120;6.192;2023-02-28T00:35:15;-0.60;99.90
18103;DHT22;9178;51.120;6.192;2023-02-28T00:37:42;-0.60;99.90
18103;DHT22;9178;51.120;6.192;2023-02-28T00:40:10;-0.60;99.90
18103;DHT22;9178;51.120;6.192;2023-02-28T00:42:38;-0.60;99.90
18103;DHT22;9178;51.120;6.192;2023-02-28T00:45:06;-0.70;99.90
18103;DHT22;9178;51.120;6.192;2023-02-28T00:47:33;-0.70;99.90
18103;DHT22;9178;51.120;6.192;2023-02-28T00:50:00;-0.70;99.90
18103;DHT22;9178;51.120;6.192;2023-02-28T00:52:28;-0.70;99.90
18103;DHT22;9178;51.120;6.192;2023-02-28T00:54:55;-0.70;99.90
18103;DHT22;9178;51.120;6.192;2023-02-28T00:57:22;-0.70;99.90
18103;DHT22;9178;51.120;6.192;2023-02-28T00:59:49;-0.80;99.90
18103;DHT22;9178;51.120;6.192;2023-02-28T01:02:16;-0.80;99.90
18103;DHT22;9178;51.120;6.192;2023-02-28T01:04:43;-0.80;99.90
18103;DHT22;9178;51.120;6.192;2023-02-28T01:07:10;-0.80;99.90
18103;DHT22;9178;51.120;6.192;2023-02-28T01:09:38;-0.80;99.90
18103;DHT22;9178;51.120;6.192;2023-02-28T01:12:06;-0.90;99.90
18103;DHT22;9178;51.120;6.192;2023-02-28T01:14:33;-0.90;99.90
18103;DHT22;9178;51.120;6.192;2023-02-28T01:17:01;-0.90;99.90
18103;DHT22;9178;51.120;6.192;2023-02-28T01:19:28;-1.00;99.90
18103;DHT22;9178;51.120;6.192;2023-02-28T01:21:55;-1.00;99.90
18103;DHT22;9178;51.120;6.192;2023-02-28T01:24:22;-0.90;99.90
18103;DHT22;9178;51.120;6.192;2023-02-28T01:26:50;-1.00;99.90
18103;DHT22;9178;51.120;6.192;2023-02-28T01:29:16;-1.00;99.90
18103;DHT22;9178;51.120;6.192;2023-02-28T01:31:43;-1.00;99.90
18103;DHT22;9178;51.120;6.192;2023-02-28T01:34:10;-1.00;99.90
18103;DHT22;9178;51.120;6.192;2023-02-28T01:36:37;-1.00;99.90
18103;DHT22;9178;51.120;6.192;2023-02-28T01:39:04;-1.00;99.90
18103;DHT22;9178;51.120;6.192;2023-02-28T01:41:33;-1.10;99.90
18103;DHT22;9178;51.120;6.192;2023-02-28T01:44:05;-1.10;99.90
18103;DHT22;9178;51.120;6.192;2023-02-28T01:46:33;-1.10;99.90
18103;DHT22;9178;51.120;6.192;2023-02-28T01:49:09;-1.10;99.90
18103;DHT22;9178;51.120;6.192;2023-02-28T01:51:41;-1.10;99.90
18103;DHT22;9178;51.120;6.192;2023-02-28T01:54:14;-1.20;99.90
18103;DHT22;9178;51.120;6.192;2023-02-28T01:56:45;-1.20;99.90
18103;DHT22;9178;51.120;6.192;2023-02-28T01:59:21;-1.20;99.90
18103;DHT22;9178;51.120;6.192;2023-02-28T02:01:48;-1.30;99.90
18103;DHT22;9178;51.120;6.192;2023-02-28T02:04:16;-1.30;99.90
18103;DHT22;9178;51.120;6.192;2023-02-28T02:06:44;-1.30;99.90
18103;DHT22;9178;51.120;6.192;2023-02-28T02:09:12;-1.30;99.90
18103;DHT22;9178;51.120;6.192;2023-02-28T02:11:41;-1.30;99.90
18103;DHT22;9178;51.120;6.192;2023-02-28T02:14:18;-1.30;99.90
18103;DHT22;9178;51.120;6.192;2023-02-28T02:17:02;-1.30;99.90
18103;DHT22;9178;51.120;6.192;2023-02-28T02:25:50;-1.40;99.90
18103;DHT22;9178;51.120;6.192;2023-02-28T02:28:42;-1.40;99.90
18103;DHT22;9178;51.120;6.192;2023-02-28T02:31:41;-1.40;99.90
18103;DHT22;9178;51.120;6.192;2023-02-28T02:37:15;-1.50;99.90
18103;DHT22;9178;51.120;6.192;2023-02-28T02:39:48;-1.50;99.90
18103;DHT22;9178;51.120;6.192;2023-02-28T02:42:24;-1.50;99.90
18103;DHT22;9178;51.120;6.192;2023-02-28T02:44:55;-1.50;99.90
18103;DHT22;9178;51.120;6.192;2023-02-28T02:47:27;-1.50;99.90
18103;DHT22;9178;51.120;6.192;2023-02-28T02:49:59;-1.50;99.90
18103;DHT22;9178;51.120;6.192;2023-02-28T02:52:31;-1.60;99.90
18103;DHT22;9178;51.120;6.192;2023-02-28T02:55:00;-1.60;99.90
18103;DHT22;9178;51.120;6.192;2023-02-28T02:57:32;-1.60;99.90
18103;DHT22;9178;51.120;6.192;2023-02-28T03:00:02;-1.60;99.90
18103;DHT22;9178;51.120;6.192;2023-02-28T03:02:32;-1.60;99.90
18103;DHT22;9178;51.120;6.192;2023-02-28T03:05:04;-1.60;99.90
18103;DHT22;9178;51.120;6.192;2023-02-28T03:07:32;-1.70;99.90
18103;DHT22;9178;51.120;6.192;2023-02-28T03:09:58;-1.70;99.90
18103;DHT22;9178;51.120;6.192;2023-02-28T03:12:32;-1.70;99.90
18103;DHT22;9178;51.120;6.192;2023-02-28T03:15:10;-1.70;99.90
18103;DHT22;9178;51.120;6.192;2023-02-28T03:17:53;-1.70;99.90
18103;DHT22;9178;51.120;6.192;2023-02-28T03:20:35;-1.70;99.90
18103;DHT22;9178;51.120;6.192;2023-02-28T03:23:12;-1.80;99.90
18103;DHT22;9178;51.120;6.192;2023-02-28T03:25:50;-1.80;99.90
18103;DHT22;9178;51.120;6.192;2023-02-28T03:28:26;-1.80;99.90
18103;DHT22;9178;51.120;6.192;2023-02-28T03:30:56;-1.80;99.90
18103;DHT22;9178;51.120;6.192;2023-02-28T03:33:27;-1.80;99.90
18103;DHT22;9178;51.120;6.192;2023-02-28T03:35:58;-1.80;99.90
18103;DHT22;9178;51.120;6.192;2023-02-28T03:38:31;-1.80;99.90
18103;DHT22;9178;51.120;6.192;2023-02-28T03:41:03;-1.80;99.90
18103;DHT22;9178;51.120;6.192;2023-02-28T03:43:34;-1.80;99.90
18103;DHT22;9178;51.120;6.192;2023-02-28T03:46:08;-1.80;99.90
18103;DHT22;9178;51.120;6.192;2023-02-28T03:48:39;-1.80;99.90
18103;DHT22;9178;51.120;6.192;2023-02-28T03:51:10;-1.80;99.90
18103;DHT22;9178;51.120;6.192;2023-02-28T03:53:41;-1.80;99.90
18103;DHT22;9178;51.120;6.192;2023-02-28T03:56:13;-1.80;99.90
18103;DHT22;9178;51.120;6.192;2023-02-28T03:58:43;-1.90;99.90
18103;DHT22;9178;51.120;6.192;2023-02-28T04:01:17;-1.90;99.90
18103;DHT22;9178;51.120;6.192;2023-02-28T04:03:45;-1.90;99.90
18103;DHT22;9178;51.120;6.192;2023-02-28T04:06:16;-2.00;99.90
18103;DHT22;9178;51.120;6.192;2023-02-28T04:08:44;-2.00;99.90
18103;DHT22;9178;51.120;6.192;2023-02-28T04:11:18;-2.00;99.90
18103;DHT22;9178;51.120;6.192;2023-02-28T04:13:46;-2.00;99.90
18103;DHT22;9178;51.120;6.192;2023-02-28T04:16:13;-2.00;99.90
18103;DHT22;9178;51.120;6.192;2023-02-28T04:18:40;-2.00;99.90
18103;DHT22;9178;51.120;6.192;2023-02-28T04:21:08;-2.00;99.90
18103;DHT22;9178;51.120;6.192;2023-02-28T04:23:37;-2.00;99.90
18103;DHT22;9178;51.120;6.192;2023-02-28T04:26:04;-2.00;99.90
18103;DHT22;9178;51.120;6.192;2023-02-28T04:28:32;-2.00;99.90
18103;DHT22;9178;51.120;6.192;2023-02-28T04:31:01;-2.00;99.90
18103;DHT22;9178;51.120;6.192;2023-02-28T04:33:30;-2.00;99.90
18103;DHT22;9178;51.120;6.192;2023-02-28T04:36:02;-2.00;99.90
18103;DHT22;9178;51.120;6.192;2023-02-28T04:38:31;-2.00;99.90
18103;DHT22;9178;51.120;6.192;2023-02-28T04:41:00;-2.10;99.90
18103;DHT22;9178;51.120;6.192;2023-02-28T04:43:28;-2.10;99.90
18103;DHT22;9178;51.120;6.192;2023-02-28T04:45:56;-2.10;99.90
18103;DHT22;9178;51.120;6.192;2023-02-28T04:48:23;-2.10;99.90
18103;DHT22;9178;51.120;6.192;2023-02-28T04:50:50;-2.10;99.90
18103;DHT22;9178;51.120;6.192;2023-02-28T04:53:17;-2.10;99.90
18103;DHT22;9178;51.120;6.192;2023-02-28T04:55:44;-2.10;99.90
18103;DHT22;9178;51.120;6.192;2023-02-28T04:58:12;-2.10;99.90
18103;DHT22;9178;51.120;6.192;2023-02-28T05:00:39;-2.20;99.90
18103;DHT22;9178;51.120;6.192;2023-02-28T05:03:06;-2.20;99.90
18103;DHT22;9178;51.120;6.192;2023-02-28T05:05:33;-2.20;99.90
18103;DHT22;9178;51.120;6.192;2023-02-28T05:08:00;-2.20;99.90
18103;DHT22;9178;51.120;6.192;2023-02-28T05:10:26;-2.20;99.90
18103;DHT22;9178;51.120;6.192;2023-02-28T05:12:53;-2.20;99.90
18103;DHT22;9178;51.120;6.192;2023-02-28T05:15:21;-2.20;99.90
18103;DHT22;9178;51.120;6.192;2023-02-28T05:17:48;-2.20;99.90
18103;DHT22;9178;51.120;6.192;2023-02-28T05:20:15;-2.10;99.90
18103;DHT22;9178;51.120;6.192;2023-02-28T05:22:43;-2.20;99.90
18103;DHT22;9178;51.120;6.192;2023-02-28T05:25:13;-2.20;99.90
18103;DHT22;9178;51.120;6.192;2023-02-28T05:27:42;-2.20;99.90
18103;DHT22;9178;51.120;6.192;2023-02-28T05:30:10;-2.10;99.90
18103;DHT22;9178;51.120;6.192;2023-02-28T05:32:40;-2.20;99.90
18103;DHT22;9178;51.120;6.192;2023-02-28T05:35:09;-2.20;99.90
18103;DHT22;9178;51.120;6.192;2023-02-28T05:37:37;-2.10;99.90
18103;DHT22;9178;51.120;6.192;2023-02-28T05:40:06;-2.20;99.90
18103;DHT22;9178;51.120;6.192;2023-02-28T05:42:35;-2.20;99.90
18103;DHT22;9178;51.120;6.192;2023-02-28T05:45:03;-2.20;99.90
18103;DHT22;9178;51.120;6.192;2023-02-28T05:47:30;-2.10;99.90
18103;DHT22;9178;51.120;6.192;2023-02-28T05:49:58;-2.10;99.90
18103;DHT22;9178;51.120;6.192;2023-02-28T05:52:25;-2.20;99.90
18103;DHT22;9178;51.120;6.192;2023-02-28T05:54:52;-2.10;99.90
18103;DHT22;9178;51.120;6.192;2023-02-28T05:57:19;-2.20;99.90
18103;DHT22;9178;51.120;6.192;2023-02-28T05:59:46;-2.20;99.90
18103;DHT22;9178;51.120;6.192;2023-02-28T06:02:14;-2.20;99.90
18103;DHT22;9178;51.120;6.192;2023-02-28T06:04:42;-2.20;99.90
18103;DHT22;9178;51.120;6.192;2023-02-28T06:07:10;-2.20;99.90
18103;DHT22;9178;51.120;6.192;2023-02-28T06:09:37;-2.20;99.90
18103;DHT22;9178;51.120;6.192;2023-02-28T06:12:05;-2.20;99.90
18103;DHT22;9178;51.120;6.192;2023-02-28T06:14:35;-2.20;99.90
18103;DHT22;9178;51.120;6.192;2023-02-28T06:17:03;-2.20;99.90
18103;DHT22;9178;51.120;6.192;2023-02-28T06:19:30;-2.20;99.90
18103;DHT22;9178;51.120;6.192;2023-02-28T06:21:57;-2.20;99.90
18103;DHT22;9178;51.120;6.192;2023-02-28T06:24:26;-2.20;99.90
18103;DHT22;9178;51.120;6.192;2023-02-28T06:26:54;-2.20;99.90
18103;DHT22;9178;51.120;6.192;2023-02-28T06:29:21;-2.20;99.90
18103;DHT22;9178;51.120;6.192;2023-02-28T06:31:48;-2.20;99.90
18103;DHT22;9178;51.120;6.192;2023-02-28T06:34:15;-2.20;99.90
18103;DHT22;9178;51.120;6.192;2023-02-28T06:36:42;-2.20;99.90
18103;DHT22;9178;51.120;6.192;2023-02-28T06:39:09;-2.20;99.90
18103;DHT22;9178;51.120;6.192;2023-02-28T06:41:37;-2.20;99.90
18103;DHT22;9178;51.120;6.192;2023-02-28T06:44:09;-2.20;99.90
18103;DHT22;9178;51.120;6.192;2023-02-28T06:46:39;-2.20;99.90
18103;DHT22;9178;51.120;6.192;2023-02-28T06:49:06;-2.20;99.90
18103;DHT22;9178;51.120;6.192;2023-02-28T06:51:35;-2.10;99.90
18103;DHT22;9178;51.120;6.192;2023-02-28T06:54:02;-2.10;99.90
18103;DHT22;9178;51.120;6.192;2023-02-28T06:56:29;-2.00;99.90
18103;DHT22;9178;51.120;6.192;2023-02-28T06:58:57;-2.00;99.90
18103;DHT22;9178;51.120;6.192;2023-02-28T07:01:24;-1.90;99.90
18103;DHT22;9178;51.120;6.192;2023-02-28T07:03:53;-1.90;99.90
18103;DHT22;9178;51.120;6.192;2023-02-28T07:06:21;-1.90;99.90
18103;DHT22;9178;51.120;6.192;2023-02-28T07:08:49;-1.80;99.90
18103;DHT22;9178;51.120;6.192;2023-02-28T07:11:16;-1.80;99.90
18103;DHT22;9178;51.120;6.192;2023-02-28T07:13:42;-1.70;99.90
18103;DHT22;9178;51.120;6.192;2023-02-28T07:16:11;-1.70;99.90
18103;DHT22;9178;51.120;6.192;2023-02-28T07:18:39;-1.60;99.90
18103;DHT22;9178;51.120;6.192;2023-02-28T07:21:08;-1.50;99.90
18103;DHT22;9178;51.120;6.192;2023-02-28T07:23:35;-1.50;99.90
18103;DHT22;9178;51.120;6.192;2023-02-28T07:26:03;-1.40;99.90
18103;DHT22;9178;51.120;6.192;2023-02-28T07:28:31;-1.30;99.90
18103;DHT22;9178;51.120;6.192;2023-02-28T07:31:03;-0.70;99.90
18103;DHT22;9178;51.120;6.192;2023-02-28T07:33:31;0.10;99.90
18103;DHT22;9178;51.120;6.192;2023-02-28T07:36:04;0.90;99.90
18103;DHT22;9178;51.120;6.192;2023-02-28T07:38:33;1.60;99.90
18103;DHT22;9178;51.120;6.192;2023-02-28T07:41:00;2.30;99.90
18103;DHT22;9178;51.120;6.192;2023-02-28T07:43:29;2.90;99.90
18103;DHT22;9178;51.120;6.192;2023-02-28T07:46:01;3.30;99.90
18103;DHT22;9178;51.120;6.192;2023-02-28T07:48:28;3.90;99.90
18103;DHT22;9178;51.120;6.192;2023-02-28T07:50:57;4.40;99.90
18103;DHT22;9178;51.120;6.192;2023-02-28T07:53:24;4.90;99.90
18103;DHT22;9178;51.120;6.192;2023-02-28T07:55:55;5.30;99.90
18103;DHT22;9178;51.120;6.192;2023-02-28T07:58:21;5.60;99.90
18103;DHT22;9178;51.120;6.192;2023-02-28T08:00:49;5.70;99.90
18103;DHT22;9178;51.120;6.192;2023-02-28T08:03:16;5.90;99.90
18103;DHT22;9178;51.120;6.192;2023-02-28T08:05:43;6.30;99.90
18103;DHT22;9178;51.120;6.192;2023-02-28T08:08:11;6.20;99.90
18103;DHT22;9178;51.120;6.192;2023-02-28T08:10:38;6.20;99.90
18103;DHT22;9178;51.120;6.192;2023-02-28T08:13:05;6.60;99.90
18103;DHT22;9178;51.120;6.192;2023-02-28T08:15:32;7.20;99.90
18103;DHT22;9178;51.120;6.192;2023-02-28T08:17:58;7.40;99.90
18103;DHT22;9178;51.120;6.192;2023-02-28T08:20:26;7.70;99.90
18103;DHT22;9178;51.120;6.192;2023-02-28T08:22:53;7.60;99.90
18103;DHT22;9178;51.120;6.192;2023-02-28T08:25:21;7.40;99.90
18103;DHT22;9178;51.120;6.192;2023-02-28T08:27:50;7.40;99.90
18103;DHT22;9178;51.120;6.192;2023-02-28T08:30:17;7.70;99.90
18103;DHT22;9178;51.120;6.192;2023-02-28T08:32:44;8.20;99.90
18103;DHT22;9178;51.120;6.192;2023-02-28T08:35:11;8.80;99.90
18103;DHT22;9178;51.120;6.192;2023-02-28T08:37:37;9.10;97.90
18103;DHT22;9178;51.120;6.192;2023-02-28T08:40:06;9.00;97.30
18103;DHT22;9178;51.120;6.192;2023-02-28T08:42:35;9.40;97.20
18103;DHT22;9178;51.120;6.192;2023-02-28T08:45:02;9.60;96.30
18103;DHT22;9178;51.120;6.192;2023-02-28T08:47:29;9.50;97.00
18103;DHT22;9178;51.120;6.192;2023-02-28T08:49:56;9.20;96.60
18103;DHT22;9178;51.120;6.192;2023-02-28T08:52:23;9.00;95.30
18103;DHT22;9178;51.120;6.192;2023-02-28T08:54:49;8.50;96.90
18103;DHT22;9178;51.120;6.192;2023-02-28T08:57:16;8.00;96.00
18103;DHT22;9178;51.120;6.192;2023-02-28T08:59:45;7.70;95.60
18103;DHT22;9178;51.120;6.192;2023-02-28T09:02:13;7.70;96.60
18103;DHT22;9178;51.120;6.192;2023-02-28T09:04:40;7.30;95.50
18103;DHT22;9178;51.120;6.192;2023-02-28T09:07:07;6.90;94.90
18103;DHT22;9178;51.120;6.192;2023-02-28T09:09:34;6.40;95.40
18103;DHT22;9178;51.120;6.192;2023-02-28T09:12:00;5.90;95.70
18103;DHT22;9178;51.120;6.192;2023-02-28T09:14:27;5.70;96.10
18103;DHT22;9178;51.120;6.192;2023-02-28T09:16:56;5.80;95.60
18103;DHT22;9178;51.120;6.192;2023-02-28T09:19:23;5.70;95.90
18103;DHT22;9178;51.120;6.192;2023-02-28T09:21:49;5.40;95.20
18103;DHT22;9178;51.120;6.192;2023-02-28T09:24:17;5.20;96.60
18103;DHT22;9178;51.120;6.192;2023-02-28T09:26:45;5.00;94.80
18103;DHT22;9178;51.120;6.192;2023-02-28T09:29:12;4.70;95.20
18103;DHT22;9178;51.120;6.192;2023-02-28T09:31:40;4.60;94.70
18103;DHT22;9178;51.120;6.192;2023-02-28T09:34:08;4.60;94.80
18103;DHT22;9178;51.120;6.192;2023-02-28T09:36:35;4.60;96.50
18103;DHT22;9178;51.120;6.192;2023-02-28T09:39:03;4.90;96.70
18103;DHT22;9178;51.120;6.192;2023-02-28T09:41:37;5.20;96.00
18103;DHT22;9178;51.120;6.192;2023-02-28T09:44:17;5.40;94.70
18103;DHT22;9178;51.120;6.192;2023-02-28T09:46:47;5.40;93.20
18103;DHT22;9178;51.120;6.192;2023-02-28T09:49:18;5.50;95.70
18103;DHT22;9178;51.120;6.192;2023-02-28T09:51:50;5.70;92.70
18103;DHT22;9178;51.120;6.192;2023-02-28T09:54:19;6.20;95.10
18103;DHT22;9178;51.120;6.192;2023-02-28T09:56:50;6.30;91.30
18103;DHT22;9178;51.120;6.192;2023-02-28T09:59:32;5.80;91.50
18103;DHT22;9178;51.120;6.192;2023-02-28T10:02:13;5.60;91.70
18103;DHT22;9178;51.120;6.192;2023-02-28T10:04:47;5.40;93.00
18103;DHT22;9178;51.120;6.192;2023-02-28T10:07:35;5.60;93.20
18103;DHT22;9178;51.120;6.192;2023-02-28T10:10:07;5.80;92.80
18103;DHT22;9178;51.120;6.192;2023-02-28T10:12:44;6.00;91.60
18103;DHT22;9178;51.120;6.192;2023-02-28T10:15:14;6.20;91.30
18103;DHT22;9178;51.120;6.192;2023-02-28T10:17:42;6.10;91.40
18103;DHT22;9178;51.120;6.192;2023-02-28T10:20:14;5.90;91.10
18103;DHT22;9178;51.120;6.192;2023-02-28T10:22:52;5.70;89.20
18103;DHT22;9178;51.120;6.192;2023-02-28T10:25:21;5.50;90.70
18103;DHT22;9178;51.120;6.192;2023-02-28T10:27:49;6.00;92.50
18103;DHT22;9178;51.120;6.192;2023-02-28T10:30:19;6.20;91.30
18103;DHT22;9178;51.120;6.192;2023-02-28T10:32:49;6.30;91.60
18103;DHT22;9178;51.120;6.192;2023-02-28T10:35:21;6.60;92.10
18103;DHT22;9178;51.120;6.192;2023-02-28T10:37:51;7.30;91.30
18103;DHT22;9178;51.120;6.192;2023-02-28T10:40:30;7.70;90.30
18103;DHT22;9178;51.120;6.192;2023-02-28T10:43:00;7.30;87.90
18103;DHT22;9178;51.120;6.192;2023-02-28T10:45:28;6.80;90.40
18103;DHT22;9178;51.120;6.192;2023-02-28T10:47:58;6.60;89.30
18103;DHT22;9178;51.120;6.192;2023-02-28T10:50:51;6.20;89.90
18103;DHT22;9178;51.120;6.192;2023-02-28T10:53:30;6.00;88.70
18103;DHT22;9178;51.120;6.192;2023-02-28T10:56:00;6.30;90.50
18103;DHT22;9178;51.120;6.192;2023-02-28T10:58:29;6.30;91.20
18103;DHT22;9178;51.120;6.192;2023-02-28T11:00:57;6.20;90.90
18103;DHT22;9178;51.120;6.192;2023-02-28T11:03:30;6.50;92.40
18103;DHT22;9178;51.120;6.192;2023-02-28T11:05:59;6.90;92.00
18103;DHT22;9178;51.120;6.192;2023-02-28T11:08:30;7.70;91.70
18103;DHT22;9178;51.120;6.192;2023-02-28T11:11:00;8.50;88.10
18103;DHT22;9178;51.120;6.192;2023-02-28T11:13:32;8.60;88.80
18103;DHT22;9178;51.120;6.192;2023-02-28T11:16:03;8.80;92.20
18103;DHT22;9178;51.120;6.192;2023-02-28T11:18:33;9.40;90.20
18103;DHT22;9178;51.120;6.192;2023-02-28T11:21:04;9.90;90.80
18103;DHT22;9178;51.120;6.192;2023-02-28T11:23:33;9.80;81.10
18103;DHT22;9178;51.120;6.192;2023-02-28T11:26:03;8.80;85.20
18103;DHT22;9178;51.120;6.192;2023-02-28T11:28:36;8.10;86.10
18103;DHT22;9178;51.120;6.192;2023-02-28T11:31:14;7.50;86.80
18103;DHT22;9178;51.120;6.192;2023-02-28T11:33:43;7.40;87.70
18103;DHT22;9178;51.120;6.192;2023-02-28T11:36:14;7.30;85.40
18103;DHT22;9178;51.120;6.192;2023-02-28T11:38:42;7.10;90.80
18103;DHT22;9178;51.120;6.192;2023-02-28T11:44:12;6.50;90.00
18103;DHT22;9178;51.120;6.192;2023-02-28T11:46:48;6.50;90.00
18103;DHT22;9178;51.120;6.192;2023-02-28T11:49:30;6.60;91.10
18103;DHT22;9178;51.120;6.192;2023-02-28T11:52:02;7.10;91.50
18103;DHT22;9178;51.120;6.192;2023-02-28T11:57:35;7.80;90.30
18103;DHT22;9178;51.120;6.192;2023-02-28T12:00:11;8.60;90.70
18103;DHT22;9178;51.120;6.192;2023-02-28T12:02:53;8.60;85.60
18103;DHT22;9178;51.120;6.192;2023-02-28T12:05:29;8.50;90.10
18103;DHT22;9178;51.120;6.192;2023-02-28T12:08:06;9.10;88.50
18103;DHT22;9178;51.120;6.192;2023-02-28T12:10:42;8.80;87.30
18103;DHT22;9178;51.120;6.192;2023-02-28T12:13:18;9.00;86.00
18103;DHT22;9178;51.120;6.192;2023-02-28T12:16:18;9.30;86.90
18103;DHT22;9178;51.120;6.192;2023-02-28T12:18:56;10.40;88.40
18103;DHT22;9178;51.120;6.192;2023-02-28T12:21:33;11.10;89.40
18103;DHT22;9178;51.120;6.192;2023-02-28T12:24:45;12.00;86.40
18103;DHT22;9178;51.120;6.192;2023-02-28T12:27:20;12.20;80.90
18103;DHT22;9178;51.120;6.192;2023-02-28T12:29:52;11.70;84.10
18103;DHT22;9178;51.120;6.192;2023-02-28T12:32:25;11.00;82.30
18103;DHT22;9178;51.120;6.192;2023-02-28T12:34:57;10.50;83.30
18103;DHT22;9178;51.120;6.192;2023-02-28T12:37:29;9.70;84.10
18103;DHT22;9178;51.120;6.192;2023-02-28T12:40:02;9.10;83.80
18103;DHT22;9178;51.120;6.192;2023-02-28T12:42:33;8.60;86.10
18103;DHT22;9178;51.120;6.192;2023-02-28T12:45:07;8.20;87.70
18103;DHT22;9178;51.120;6.192;2023-02-28T12:47:38;8.00;89.60
18103;DHT22;9178;51.120;6.192;2023-02-28T12:50:08;8.20;89.60
18103;DHT22;9178;51.120;6.192;2023-02-28T12:52:41;8.20;86.90
18103;DHT22;9178;51.120;6.192;2023-02-28T12:55:14;8.20;87.60
18103;DHT22;9178;51.120;6.192;2023-02-28T12:57:49;8.40;86.80
18103;DHT22;9178;51.120;6.192;2023-02-28T13:00:20;8.50;90.20
18103;DHT22;9178;51.120;6.192;2023-02-28T13:03:06;8.50;88.20
18103;DHT22;9178;51.120;6.192;2023-02-28T13:05:50;8.90;88.50
18103;DHT22;9178;51.120;6.192;2023-02-28T13:11:25;9.40;90.20
18103;DHT22;9178;51.120;6.192;2023-02-28T13:13:59;9.70;84.80
18103;DHT22;9178;51.120;6.192;2023-02-28T13:16:27;10.20;88.60
18103;DHT22;9178;51.120;6.192;2023-02-28T13:19:09;11.10;87.20
18103;DHT22;9178;51.120;6.192;2023-02-28T13:21:43;11.10;79.00
18103;DHT22;9178;51.120;6.192;2023-02-28T13:24:11;9.80;81.20
18103;DHT22;9178;51.120;6.192;2023-02-28T13:27:32;9.20;83.40
18103;DHT22;9178;51.120;6.192;2023-02-28T13:30:01;9.10;85.70
18103;DHT22;9178;51.120;6.192;2023-02-28T13:32:34;9.00;87.80
18103;DHT22;9178;51.120;6.192;2023-02-28T13:44:06;9.50;86.00
18103;DHT22;9178;51.120;6.192;2023-02-28T13:46:36;10.20;85.40
18103;DHT22;9178;51.120;6.192;2023-02-28T13:49:19;10.30;82.80
18103;DHT22;9178;51.120;6.192;2023-02-28T13:51:47;11.00;84.30
18103;DHT22;9178;51.120;6.192;2023-02-28T13:54:24;11.30;83.70
18103;DHT22;9178;51.120;6.192;2023-02-28T13:57:10;11.90;83.10
18103;DHT22;9178;51.120;6.192;2023-02-28T13:59:48;12.70;84.30
18103;DHT22;9178;51.120;6.192;2023-02-28T14:05:15;14.00;78.90
18103;DHT22;9178;51.120;6.192;2023-02-28T14:07:46;14.10;77.80
18103;DHT22;9178;51.120;6.192;2023-02-28T14:10:23;14.50;73.30
18103;DHT22;9178;51.120;6.192;2023-02-28T14:12:59;14.70;74.70
18103;DHT22;9178;51.120;6.192;2023-02-28T14:15:39;14.60;73.30
18103;DHT22;9178;51.120;6.192;2023-02-28T14:18:21;14.30;69.40
18103;DHT22;9178;51.120;6.192;2023-02-28T14:20:51;14.30;70.10
18103;DHT22;9178;51.120;6.192;2023-02-28T14:23:46;13.70;74.60
18103;DHT22;9178;51.120;6.192;2023-02-28T14:26:32;13.70;71.30
18103;DHT22;9178;51.120;6.192;2023-02-28T14:29:18;13.80;67.80
18103;DHT22;9178;51.120;6.192;2023-02-28T14:31:58;13.20;71.00
18103;DHT22;9178;51.120;6.192;2023-02-28T14:34:40;12.70;72.70
18103;DHT22;9178;51.120;6.192;2023-02-28T14:37:15;12.70;73.00
18103;DHT22;9178;51.120;6.192;2023-02-28T14:39:44;12.00;72.10
18103;DHT22;9178;51.120;6.192;2023-02-28T14:42:32;10.90;71.70
18103;DHT22;9178;51.120;6.192;2023-02-28T14:45:20;10.50;73.80
18103;DHT22;9178;51.120;6.192;2023-02-28T14:47:58;10.60;74.70
18103;DHT22;9178;51.120;6.192;2023-02-28T14:50:36;10.40;76.70
18103;DHT22;9178;51.120;6.192;2023-02-28T14:53:12;10.50;77.00
18103;DHT22;9178;51.120;6.192;2023-02-28T14:55:47;10.30;74.70
18103;DHT22;9178;51.120;6.192;2023-02-28T14:58:28;9.90;76.60
18103;DHT22;9178;51.120;6.192;2023-02-28T15:01:10;9.60;76.70
18103;DHT22;9178;51.120;6.192;2023-02-28T15:04:11;8.80;76.90
18103;DHT22;9178;51.120;6.192;2023-02-28T15:06:41;8.50;80.10
18103;DHT22;9178;51.120;6.192;2023-02-28T15:09:13;8.10;78.90
18103;DHT22;9178;51.120;6.192;2023-02-28T15:11:40;7.70;80.30
18103;DHT22;9178;51.120;6.192;2023-02-28T15:14:12;7.70;81.50
18103;DHT22;9178;51.120;6.192;2023-02-28T15:16:42;7.70;81.10
18103;DHT22;9178;51.120;6.192;2023-02-28T15:19:16;7.60;82.30
18103;DHT22;9178;51.120;6.192;2023-02-28T15:21:47;7.40;84.60
18103;DHT22;9178;51.120;6.192;2023-02-28T15:24:18;7.30;84.00
18103;DHT22;9178;51.120;6.192;2023-02-28T15:26:53;7.10;83.20
18103;DHT22;9178;51.120;6.192;2023-02-28T15:29:23;7.00;83.00
18103;DHT22;9178;51.120;6.192;2023-02-28T15:31:56;6.90;83.30
18103;DHT22;9178;51.120;6.192;2023-02-28T15:34:33;6.80;83.80
18103;DHT22;9178;51.120;6.192;2023-02-28T15:37:00;6.60;83.90
18103;DHT22;9178;51.120;6.192;2023-02-28T15:39:28;6.40;85.10
18103;DHT22;9178;51.120;6.192;2023-02-28T15:42:10;6.30;83.70
18103;DHT22;9178;51.120;6.192;2023-02-28T15:44:37;6.20;83.70
18103;DHT22;9178;51.120;6.192;2023-02-28T15:47:06;6.10;85.00
18103;DHT22;9178;51.120;6.192;2023-02-28T15:49:39;6.00;86.30
18103;DHT22;9178;51.120;6.192;2023-02-28T15:52:12;6.00;88.50
18103;DHT22;9178;51.120;6.192;2023-02-28T15:54:39;5.90;87.40
18103;DHT22;9178;51.120;6.192;2023-02-28T15:57:13;5.90;88.40
18103;DHT22;9178;51.120;6.192;2023-02-28T15:59:48;5.90;87.80
18103;DHT22;9178;51.120;6.192;2023-02-28T16:02:18;5.90;87.80
18103;DHT22;9178;51.120;6.192;2023-02-28T16:05:02;5.80;88.40
18103;DHT22;9178;51.120;6.192;2023-02-28T16:07:32;5.70;89.10
18103;DHT22;9178;51.120;6.192;2023-02-28T16:09:59;5.70;90.10
18103;DHT22;9178;51.120;6.192;2023-02-28T16:12:28;5.70;90.00
18103;DHT22;9178;51.120;6.192;2023-02-28T16:14:57;5.70;89.50
18103;DHT22;9178;51.120;6.192;2023-02-28T16:17:28;5.60;89.80
18103;DHT22;9178;51.120;6.192;2023-02-28T16:19:55;5.60;91.00
18103;DHT22;9178;51.120;6.192;2023-02-28T16:22:23;5.50;90.00
18103;DHT22;9178;51.120;6.192;2023-02-28T16:24:50;5.40;90.20
18103;DHT22;9178;51.120;6.192;2023-02-28T16:27:21;5.30;90.60
18103;DHT22;9178;51.120;6.192;2023-02-28T16:29:48;5.20;91.00
18103;DHT22;9178;51.120;6.192;2023-02-28T16:32:15;5.10;91.00
18103;DHT22;9178;51.120;6.192;2023-02-28T16:34:43;5.10;91.30
18103;DHT22;9178;51.120;6.192;2023-02-28T16:37:12;5.00;91.10
18103;DHT22;9178;51.120;6.192;2023-02-28T16:39:41;4.90;91.20
18103;DHT22;9178;51.120;6.192;2023-02-28T16:42:14;4.90;91.10
18103;DHT22;9178;51.120;6.192;2023-02-28T16:44:42;4.80;91.50
18103;DHT22;9178;51.120;6.192;2023-02-28T16:47:10;4.70;91.60